McCarran, Nevada
Current Conditions -  °F | °C
As of 5:55 PM on Wednesday 22 Oct 2014 (Local Time) from KRNO Reporting Station
Broken Clouds Broken Clouds  
Wind Chill: 21°   Ceiling: 25000
Heat Index: 21°   Visibility: 10mi
Dew Point: -1°   Wind: 3mph
Humidity: 23%   Direction: 110°ESE
Pressure: 30.03"   Gusts: NA
Location:  39.5403°N, 119.672°W
Report Text: KRNO 230055Z 11003KT 10SM SCT170 SCT220 BKN250 21/M01 A3003 RMK AO2 SLP142 ACSL DSNT ALQDS T02061011
Loading
Personal Weather Stations






























Interactive Weather Map
Tropical Storm Tracking
New forecast layout! Learn more

10-Day Weather Forecast

Advertisements
Track Severe Weather on mobile